Coronel Fabriciano, Brazil
Current Conditions -  °F | °C
As of 5:50 PM on Saturday 24 Jan 2015 (Local Time) from SBIP Reporting Station
Clear Clear  
Wind Chill: 86°   Ceiling: Unl
Heat Index: 86°   Visibility: 6mi
Dew Point: 59°   Wind: 3mph
Humidity: 40%   Direction: 30°NNE
Pressure: 29.85"   Gusts: NA
Location:  19.53°S, 42.64°W
Report Text: SBIP 241950Z 03003KT CAVOK 30/15 Q1011
Loading
Personal Weather Stations






























Interactive Weather Map New forecast layout! Learn more

10-Day Weather Forecast

Advertisements
Track Severe Weather on mobile